Republic, Washington
Current Conditions -  °F | °C
As of 2:53 PM on Wednesday 26 Nov 2014 (Local Time) from KOMK Reporting Station
Haze Haze  
Wind Chill: 28°   Ceiling: 1200
Heat Index: 35°   Visibility: 5mi
Dew Point: 33°   Wind: 9mph
Humidity: 92%   Direction: 160°SSE
Pressure: 30.09"   Gusts: NA
Location:  48.65°N, 118.74°W
Report Text: KOMK 262253Z AUTO 16008KT 5SM BR OVC012 02/01 A3009 RMK AO2 SLP204 T00170006
Loading
Personal Weather Stations






























Interactive Weather Map New forecast layout! Learn more

10-Day Weather Forecast

Advertisements
Track Severe Weather on mobile